sensor_id;sensor_type;location;lat;lon;timestamp;pressure;altitude;pressure_sealevel;temperature;humidity
51245;BME280;37840;47.562;18.738;2024-03-06T00:00:11;99562.12;;;7.31;88.06
51245;BME280;37840;47.562;18.738;2024-03-06T00:02:37;99562.69;;;7.22;89.19
51245;BME280;37840;47.562;18.738;2024-03-06T00:05:03;99562.28;;;7.13;89.65
51245;BME280;37840;47.562;18.738;2024-03-06T00:07:30;99559.84;;;7.10;89.55
51245;BME280;37840;47.562;18.738;2024-03-06T00:09:56;99563.91;;;7.16;89.23
51245;BME280;37840;47.562;18.738;2024-03-06T00:12:22;99563.66;;;7.21;89.68
51245;BME280;37840;47.562;18.738;2024-03-06T00:14:48;99566.00;;;7.25;89.33
51245;BME280;37840;47.562;18.738;2024-03-06T00:17:14;99566.09;;;7.24;89.04
51245;BME280;37840;47.562;18.738;2024-03-06T00:19:39;99565.94;;;7.27;88.41
51245;BME280;37840;47.562;18.738;2024-03-06T00:22:05;99568.38;;;7.30;87.96
51245;BME280;37840;47.562;18.738;2024-03-06T00:24:31;99565.16;;;7.25;88.72
51245;BME280;37840;47.562;18.738;2024-03-06T00:26:58;99563.44;;;7.24;89.01
51245;BME280;37840;47.562;18.738;2024-03-06T00:29:24;99561.56;;;7.26;89.11
51245;BME280;37840;47.562;18.738;2024-03-06T00:31:50;99562.12;;;7.31;88.96
51245;BME280;37840;47.562;18.738;2024-03-06T00:34:16;99556.59;;;7.35;88.46
51245;BME280;37840;47.562;18.738;2024-03-06T00:36:45;99560.91;;;7.37;88.69
51245;BME280;37840;47.562;18.738;2024-03-06T00:39:11;99566.97;;;7.39;88.55
51245;BME280;37840;47.562;18.738;2024-03-06T00:41:40;99570.06;;;7.17;88.69
51245;BME280;37840;47.562;18.738;2024-03-06T00:44:06;99571.91;;;7.00;89.73
51245;BME280;37840;47.562;18.738;2024-03-06T00:46:32;99570.44;;;7.10;89.08
51245;BME280;37840;47.562;18.738;2024-03-06T00:48:58;99565.06;;;7.12;88.95
51245;BME280;37840;47.562;18.738;2024-03-06T00:51:24;99554.47;;;7.12;88.90
51245;BME280;37840;47.562;18.738;2024-03-06T00:53:50;99551.44;;;7.18;89.56
51245;BME280;37840;47.562;18.738;2024-03-06T00:56:16;99558.06;;;7.25;89.27
51245;BME280;37840;47.562;18.738;2024-03-06T00:58:41;99564.13;;;7.27;88.71
51245;BME280;37840;47.562;18.738;2024-03-06T01:01:07;99565.06;;;7.26;88.20
51245;BME280;37840;47.562;18.738;2024-03-06T01:03:33;99568.47;;;7.28;87.63
51245;BME280;37840;47.562;18.738;2024-03-06T01:05:59;99566.56;;;7.30;87.44
51245;BME280;37840;47.562;18.738;2024-03-06T01:08:25;99566.41;;;7.33;87.27
51245;BME280;37840;47.562;18.738;2024-03-06T01:10:51;99567.34;;;7.32;88.42
51245;BME280;37840;47.562;18.738;2024-03-06T01:13:20;99560.06;;;7.36;89.12
51245;BME280;37840;47.562;18.738;2024-03-06T01:15:46;99572.16;;;7.40;89.54
51245;BME280;37840;47.562;18.738;2024-03-06T01:18:12;99577.25;;;7.43;90.27
51245;BME280;37840;47.562;18.738;2024-03-06T01:20:38;99572.72;;;7.45;89.95
51245;BME280;37840;47.562;18.738;2024-03-06T01:23:05;99574.25;;;7.49;90.07
51245;BME280;37840;47.562;18.738;2024-03-06T01:25:31;99569.78;;;7.50;90.32
51245;BME280;37840;47.562;18.738;2024-03-06T01:27:57;99566.78;;;7.56;90.13
51245;BME280;37840;47.562;18.738;2024-03-06T01:30:23;99560.19;;;7.63;89.60
51245;BME280;37840;47.562;18.738;2024-03-06T01:32:48;99560.06;;;7.65;89.18
51245;BME280;37840;47.562;18.738;2024-03-06T01:35:14;99564.72;;;7.61;89.10
51245;BME280;37840;47.562;18.738;2024-03-06T01:37:40;99555.25;;;7.57;88.81
51245;BME280;37840;47.562;18.738;2024-03-06T01:40:07;99554.69;;;7.52;88.52
51245;BME280;37840;47.562;18.738;2024-03-06T01:42:34;99559.03;;;7.53;87.29
51245;BME280;37840;47.562;18.738;2024-03-06T01:45:02;99557.44;;;7.50;86.34
51245;BME280;37840;47.562;18.738;2024-03-06T01:47:28;99565.06;;;7.41;84.69
51245;BME280;37840;47.562;18.738;2024-03-06T01:49:54;99568.56;;;7.27;85.08
51245;BME280;37840;47.562;18.738;2024-03-06T01:52:20;99567.69;;;7.12;85.66
51245;BME280;37840;47.562;18.738;2024-03-06T01:54:48;99567.19;;;7.05;86.02
51245;BME280;37840;47.562;18.738;2024-03-06T01:57:16;99572.25;;;6.94;87.69
51245;BME280;37840;47.562;18.738;2024-03-06T01:59:43;99573.59;;;7.01;88.07
51245;BME280;37840;47.562;18.738;2024-03-06T02:02:09;99572.47;;;7.05;88.15
51245;BME280;37840;47.562;18.738;2024-03-06T02:04:37;99567.69;;;7.12;87.51
51245;BME280;37840;47.562;18.738;2024-03-06T02:07:08;99569.47;;;7.11;86.65
51245;BME280;37840;47.562;18.738;2024-03-06T02:09:37;99566.06;;;7.09;86.45
51245;BME280;37840;47.562;18.738;2024-03-06T02:12:03;99576.50;;;6.97;86.26
51245;BME280;37840;47.562;18.738;2024-03-06T02:14:29;99571.00;;;6.85;86.57
51245;BME280;37840;47.562;18.738;2024-03-06T02:17:14;99572.97;;;6.82;86.84
51245;BME280;37840;47.562;18.738;2024-03-06T02:19:41;99579.13;;;6.82;86.86
51245;BME280;37840;47.562;18.738;2024-03-06T02:22:08;99571.22;;;6.82;86.56
51245;BME280;37840;47.562;18.738;2024-03-06T02:24:35;99565.16;;;6.80;86.65
51245;BME280;37840;47.562;18.738;2024-03-06T02:27:01;99570.44;;;6.80;86.56
51245;BME280;37840;47.562;18.738;2024-03-06T02:29:26;99571.56;;;6.76;86.17
51245;BME280;37840;47.562;18.738;2024-03-06T02:31:52;99568.22;;;6.72;87.00
51245;BME280;37840;47.562;18.738;2024-03-06T02:34:18;99573.72;;;6.69;87.00
51245;BME280;37840;47.562;18.738;2024-03-06T02:36:44;99571.41;;;6.63;86.92
51245;BME280;37840;47.562;18.738;2024-03-06T02:39:10;99569.22;;;6.56;87.55
51245;BME280;37840;47.562;18.738;2024-03-06T02:41:36;99566.56;;;6.56;87.24
51245;BME280;37840;47.562;18.738;2024-03-06T02:44:02;99579.69;;;6.57;87.43
51245;BME280;37840;47.562;18.738;2024-03-06T02:46:29;99569.03;;;6.59;88.05
51245;BME280;37840;47.562;18.738;2024-03-06T02:48:55;99571.56;;;6.60;88.14
51245;BME280;37840;47.562;18.738;2024-03-06T02:51:21;99578.59;;;6.61;88.06
51245;BME280;37840;47.562;18.738;2024-03-06T02:53:47;99578.47;;;6.63;87.78
51245;BME280;37840;47.562;18.738;2024-03-06T02:56:18;99580.13;;;6.65;87.35
51245;BME280;37840;47.562;18.738;2024-03-06T02:58:44;99580.88;;;6.67;87.71
51245;BME280;37840;47.562;18.738;2024-03-06T03:01:11;99577.72;;;6.61;88.32
51245;BME280;37840;47.562;18.738;2024-03-06T03:03:37;99583.09;;;6.59;87.34
51245;BME280;37840;47.562;18.738;2024-03-06T03:06:03;99583.19;;;6.58;87.17
51245;BME280;37840;47.562;18.738;2024-03-06T03:08:30;99584.22;;;6.55;87.39
51245;BME280;37840;47.562;18.738;2024-03-06T03:10:56;99588.03;;;6.49;87.70
51245;BME280;37840;47.562;18.738;2024-03-06T03:13:22;99586.78;;;6.41;86.99
51245;BME280;37840;47.562;18.738;2024-03-06T03:15:48;99589.41;;;6.41;87.48
51245;BME280;37840;47.562;18.738;2024-03-06T03:18:14;99589.69;;;6.36;87.30
51245;BME280;37840;47.562;18.738;2024-03-06T03:20:40;99590.88;;;6.30;87.05
51245;BME280;37840;47.562;18.738;2024-03-06T03:23:06;99589.00;;;6.32;87.09
51245;BME280;37840;47.562;18.738;2024-03-06T03:25:38;99593.59;;;6.29;87.84
51245;BME280;37840;47.562;18.738;2024-03-06T03:28:04;99588.50;;;6.26;89.27
51245;BME280;37840;47.562;18.738;2024-03-06T03:30:30;99591.47;;;6.20;88.69
51245;BME280;37840;47.562;18.738;2024-03-06T03:32:58;99588.91;;;6.18;89.04
51245;BME280;37840;47.562;18.738;2024-03-06T03:35:24;99597.94;;;6.14;89.48
51245;BME280;37840;47.562;18.738;2024-03-06T03:37:51;99593.69;;;6.11;90.24
51245;BME280;37840;47.562;18.738;2024-03-06T03:40:18;99589.09;;;6.15;90.50
51245;BME280;37840;47.562;18.738;2024-03-06T03:42:44;99595.81;;;6.21;90.25
51245;BME280;37840;47.562;18.738;2024-03-06T03:45:10;99595.66;;;6.24;89.37
51245;BME280;37840;47.562;18.738;2024-03-06T03:47:37;99595.38;;;6.28;87.68
51245;BME280;37840;47.562;18.738;2024-03-06T03:50:03;99604.16;;;6.29;86.41
51245;BME280;37840;47.562;18.738;2024-03-06T03:52:30;99606.63;;;6.16;86.50
51245;BME280;37840;47.562;18.738;2024-03-06T03:54:55;99613.94;;;6.11;87.29
51245;BME280;37840;47.562;18.738;2024-03-06T03:57:21;99609.84;;;6.05;88.52
51245;BME280;37840;47.562;18.738;2024-03-06T03:59:47;99620.50;;;6.04;88.71
51245;BME280;37840;47.562;18.738;2024-03-06T04:02:13;99624.31;;;5.98;88.07
51245;BME280;37840;47.562;18.738;2024-03-06T04:04:39;99627.16;;;5.95;88.33
51245;BME280;37840;47.562;18.738;2024-03-06T04:07:05;99613.00;;;5.96;88.19
51245;BME280;37840;47.562;18.738;2024-03-06T04:09:33;99618.56;;;5.90;88.73
51245;BME280;37840;47.562;18.738;2024-03-06T04:12:05;99621.63;;;5.82;88.75
51245;BME280;37840;47.562;18.738;2024-03-06T04:14:30;99619.91;;;5.81;88.46
51245;BME280;37840;47.562;18.738;2024-03-06T04:16:56;99618.22;;;5.80;88.61
51245;BME280;37840;47.562;18.738;2024-03-06T04:19:22;99625.38;;;5.78;88.96
51245;BME280;37840;47.562;18.738;2024-03-06T04:21:48;99626.63;;;5.71;88.60
51245;BME280;37840;47.562;18.738;2024-03-06T04:24:14;99622.09;;;5.73;88.78
51245;BME280;37840;47.562;18.738;2024-03-06T04:26:40;99622.75;;;5.78;89.39
51245;BME280;37840;47.562;18.738;2024-03-06T04:29:06;99631.44;;;5.80;89.50
51245;BME280;37840;47.562;18.738;2024-03-06T04:31:32;99634.84;;;5.82;88.99
51245;BME280;37840;47.562;18.738;2024-03-06T04:33:58;99642.75;;;5.82;88.71
51245;BME280;37840;47.562;18.738;2024-03-06T04:36:24;99639.16;;;5.83;88.71
51245;BME280;37840;47.562;18.738;2024-03-06T04:38:50;99639.47;;;5.77;88.30
51245;BME280;37840;47.562;18.738;2024-03-06T04:41:18;99641.28;;;5.77;88.20
51245;BME280;37840;47.562;18.738;2024-03-06T04:43:45;99643.84;;;5.78;88.34
51245;BME280;37840;47.562;18.738;2024-03-06T04:46:13;99641.22;;;5.78;88.20
51245;BME280;37840;47.562;18.738;2024-03-06T04:48:40;99641.09;;;5.80;88.01
51245;BME280;37840;47.562;18.738;2024-03-06T04:51:06;99641.28;;;5.77;87.94
51245;BME280;37840;47.562;18.738;2024-03-06T04:53:32;99648.34;;;5.76;88.84
51245;BME280;37840;47.562;18.738;2024-03-06T04:55:57;99651.75;;;5.78;88.83
51245;BME280;37840;47.562;18.738;2024-03-06T04:58:23;99648.34;;;5.76;88.78
51245;BME280;37840;47.562;18.738;2024-03-06T05:00:49;99649.25;;;5.75;87.34
51245;BME280;37840;47.562;18.738;2024-03-06T05:03:15;99659.03;;;5.73;87.18
51245;BME280;37840;47.562;18.738;2024-03-06T05:05:41;99647.91;;;5.68;87.39
51245;BME280;37840;47.562;18.738;2024-03-06T05:08:07;99646.41;;;5.62;88.45
51245;BME280;37840;47.562;18.738;2024-03-06T05:10:33;99658.91;;;5.59;88.59
51245;BME280;37840;47.562;18.738;2024-03-06T05:13:00;99656.44;;;5.56;88.58
51245;BME280;37840;47.562;18.738;2024-03-06T05:15:26;99652.25;;;5.51;89.86
51245;BME280;37840;47.562;18.738;2024-03-06T05:17:53;99652.97;;;5.55;89.99
51245;BME280;37840;47.562;18.738;2024-03-06T05:20:19;99643.97;;;5.59;88.89
51245;BME280;37840;47.562;18.738;2024-03-06T05:22:45;99643.09;;;5.59;88.37
51245;BME280;37840;47.562;18.738;2024-03-06T05:25:11;99644.94;;;5.57;88.78
51245;BME280;37840;47.562;18.738;2024-03-06T05:27:37;99649.38;;;5.56;87.48
51245;BME280;37840;47.562;18.738;2024-03-06T05:30:04;99650.47;;;5.52;87.70
51245;BME280;37840;47.562;18.738;2024-03-06T05:32:31;99648.84;;;5.49;88.02
51245;BME280;37840;47.562;18.738;2024-03-06T05:34:56;99650.00;;;5.44;88.62
51245;BME280;37840;47.562;18.738;2024-03-06T05:37:23;99647.47;;;5.42;88.75
51245;BME280;37840;47.562;18.738;2024-03-06T05:39:49;99650.94;;;5.43;88.39
51245;BME280;37840;47.562;18.738;2024-03-06T05:42:15;99646.69;;;5.40;88.85
51245;BME280;37840;47.562;18.738;2024-03-06T05:44:41;99649.31;;;5.40;89.21
51245;BME280;37840;47.562;18.738;2024-03-06T05:47:07;99650.25;;;5.39;89.21
51245;BME280;37840;47.562;18.738;2024-03-06T05:49:33;99651.97;;;5.40;89.52
51245;BME280;37840;47.562;18.738;2024-03-06T05:52:00;99648.91;;;5.48;89.36
51245;BME280;37840;47.562;18.738;2024-03-06T05:54:26;99655.91;;;5.49;88.90
51245;BME280;37840;47.562;18.738;2024-03-06T05:56:53;99657.59;;;5.50;89.28
51245;BME280;37840;47.562;18.738;2024-03-06T05:59:19;99660.09;;;5.53;89.87
51245;BME280;37840;47.562;18.738;2024-03-06T06:01:45;99668.63;;;5.58;90.41
51245;BME280;37840;47.562;18.738;2024-03-06T06:04:12;99664.75;;;5.65;90.77
51245;BME280;37840;47.562;18.738;2024-03-06T06:06:39;99675.81;;;5.72;91.17
51245;BME280;37840;47.562;18.738;2024-03-06T06:09:05;99677.19;;;5.79;90.98
51245;BME280;37840;47.562;18.738;2024-03-06T06:11:32;99674.84;;;5.90;91.00
51245;BME280;37840;47.562;18.738;2024-03-06T06:13:59;99676.53;;;6.09;89.72
51245;BME280;37840;47.562;18.738;2024-03-06T06:16:25;99682.28;;;6.33;88.91
51245;BME280;37840;47.562;18.738;2024-03-06T06:18:51;99672.59;;;6.65;87.38
51245;BME280;37840;47.562;18.738;2024-03-06T06:21:18;99672.38;;;7.00;86.15
51245;BME280;37840;47.562;18.738;2024-03-06T06:23:44;99680.28;;;7.61;83.46
51245;BME280;37840;47.562;18.738;2024-03-06T06:26:10;99680.44;;;8.16;80.84
51245;BME280;37840;47.562;18.738;2024-03-06T06:28:37;99674.78;;;8.78;78.34
51245;BME280;37840;47.562;18.738;2024-03-06T06:31:04;99675.94;;;9.42;74.48
51245;BME280;37840;47.562;18.738;2024-03-06T06:33:30;99681.37;;;9.91;72.02
51245;BME280;37840;47.562;18.738;2024-03-06T06:35:56;99679.25;;;10.48;70.36
51245;BME280;37840;47.562;18.738;2024-03-06T06:38:22;99679.13;;;10.86;69.53
51245;BME280;37840;47.562;18.738;2024-03-06T06:40:48;99680.06;;;11.33;68.54
51245;BME280;37840;47.562;18.738;2024-03-06T06:43:14;99683.97;;;11.98;66.30
51245;BME280;37840;47.562;18.738;2024-03-06T06:45:41;99677.31;;;12.38;63.91
51245;BME280;37840;47.562;18.738;2024-03-06T06:48:07;99679.69;;;12.75;63.69
51245;BME280;37840;47.562;18.738;2024-03-06T06:50:35;99678.19;;;12.93;61.37
51245;BME280;37840;47.562;18.738;2024-03-06T06:53:01;99687.00;;;13.16;60.40
51245;BME280;37840;47.562;18.738;2024-03-06T06:55:27;99685.00;;;13.41;60.51
51245;BME280;37840;47.562;18.738;2024-03-06T06:57:53;99687.00;;;13.70;59.53
51245;BME280;37840;47.562;18.738;2024-03-06T07:00:19;99676.19;;;13.92;58.36
51245;BME280;37840;47.562;18.738;2024-03-06T07:02:48;99690.38;;;14.14;57.26
51245;BME280;37840;47.562;18.738;2024-03-06T07:05:15;99692.69;;;14.28;56.70
51245;BME280;37840;47.562;18.738;2024-03-06T07:07:40;99692.47;;;14.41;56.30
51245;BME280;37840;47.562;18.738;2024-03-06T07:10:07;99689.09;;;14.48;56.41
51245;BME280;37840;47.562;18.738;2024-03-06T07:12:34;99691.62;;;14.19;57.76
51245;BME280;37840;47.562;18.738;2024-03-06T07:15:00;99688.53;;;13.83;59.25
51245;BME280;37840;47.562;18.738;2024-03-06T07:17:28;99683.91;;;13.32;61.09
51245;BME280;37840;47.562;18.738;2024-03-06T07:19:54;99686.63;;;12.77;63.46
51245;BME280;37840;47.562;18.738;2024-03-06T07:22:20;99682.06;;;12.46;66.44
51245;BME280;37840;47.562;18.738;2024-03-06T07:24:46;99692.34;;;12.28;67.68
51245;BME280;37840;47.562;18.738;2024-03-06T07:27:12;99697.19;;;11.89;68.47
51245;BME280;37840;47.562;18.738;2024-03-06T07:29:38;99698.56;;;11.70;71.05
51245;BME280;37840;47.562;18.738;2024-03-06T07:32:04;99697.34;;;11.63;71.84
51245;BME280;37840;47.562;18.738;2024-03-06T07:34:33;99696.81;;;11.58;71.45
51245;BME280;37840;47.562;18.738;2024-03-06T07:36:59;99705.50;;;11.49;71.41
51245;BME280;37840;47.562;18.738;2024-03-06T07:39:25;99702.81;;;11.37;72.07
51245;BME280;37840;47.562;18.738;2024-03-06T07:41:51;99702.69;;;11.39;73.33
51245;BME280;37840;47.562;18.738;2024-03-06T07:44:17;99707.03;;;11.29;73.55
51245;BME280;37840;47.562;18.738;2024-03-06T07:46:43;99708.06;;;11.26;74.04
51245;BME280;37840;47.562;18.738;2024-03-06T07:49:09;99712.34;;;11.29;74.70
51245;BME280;37840;47.562;18.738;2024-03-06T07:51:35;99711.66;;;11.38;75.01
51245;BME280;37840;47.562;18.738;2024-03-06T07:54:03;99705.28;;;11.52;72.87
51245;BME280;37840;47.562;18.738;2024-03-06T07:56:30;99701.69;;;11.64;73.46
51245;BME280;37840;47.562;18.738;2024-03-06T07:58:56;99706.53;;;11.70;73.62
51245;BME280;37840;47.562;18.738;2024-03-06T08:01:22;99713.44;;;11.73;73.51
51245;BME280;37840;47.562;18.738;2024-03-06T08:03:49;99712.97;;;11.79;74.22
51245;BME280;37840;47.562;18.738;2024-03-06T08:06:15;99711.66;;;11.84;74.36
51245;BME280;37840;47.562;18.738;2024-03-06T08:08:44;99712.25;;;11.77;74.49
51245;BME280;37840;47.562;18.738;2024-03-06T08:11:11;99710.13;;;11.58;73.37
51245;BME280;37840;47.562;18.738;2024-03-06T08:13:38;99715.41;;;11.35;73.21
51245;BME280;37840;47.562;18.738;2024-03-06T08:16:05;99719.69;;;11.25;72.29
51245;BME280;37840;47.562;18.738;2024-03-06T08:18:32;99722.53;;;11.11;73.12
51245;BME280;37840;47.562;18.738;2024-03-06T08:20:58;99717.78;;;11.03;73.57
51245;BME280;37840;47.562;18.738;2024-03-06T08:23:24;99715.56;;;10.97;75.37
51245;BME280;37840;47.562;18.738;2024-03-06T08:25:51;99722.69;;;10.96;76.03
51245;BME280;37840;47.562;18.738;2024-03-06T08:28:17;99718.84;;;11.00;75.25
51245;BME280;37840;47.562;18.738;2024-03-06T08:30:42;99725.03;;;11.01;76.88
51245;BME280;37840;47.562;18.738;2024-03-06T08:33:10;99717.78;;;11.03;76.79
51245;BME280;37840;47.562;18.738;2024-03-06T08:35:36;99715.88;;;11.05;75.42
51245;BME280;37840;47.562;18.738;2024-03-06T08:38:02;99715.53;;;11.10;75.74
51245;BME280;37840;47.562;18.738;2024-03-06T08:40:29;99712.28;;;11.17;76.96
51245;BME280;37840;47.562;18.738;2024-03-06T08:42:55;99716.06;;;11.26;76.38
51245;BME280;37840;47.562;18.738;2024-03-06T08:45:22;99725.25;;;11.46;75.49
51245;BME280;37840;47.562;18.738;2024-03-06T08:47:51;99717.44;;;11.67;75.15
51245;BME280;37840;47.562;18.738;2024-03-06T08:50:19;99726.81;;;11.84;74.36
51245;BME280;37840;47.562;18.738;2024-03-06T08:52:47;99718.87;;;12.07;71.99
51245;BME280;37840;47.562;18.738;2024-03-06T08:55:13;99722.31;;;12.20;70.96
51245;BME280;37840;47.562;18.738;2024-03-06T08:57:39;99724.19;;;12.07;70.45
51245;BME280;37840;47.562;18.738;2024-03-06T09:00:07;99724.25;;;12.18;70.83
51245;BME280;37840;47.562;18.738;2024-03-06T09:02:37;99725.91;;;12.30;71.85
51245;BME280;37840;47.562;18.738;2024-03-06T09:05:09;99715.53;;;12.50;70.64
51245;BME280;37840;47.562;18.738;2024-03-06T09:07:39;99721.78;;;12.60;69.60
51245;BME280;37840;47.562;18.738;2024-03-06T09:10:07;99729.22;;;12.56;68.70
51245;BME280;37840;47.562;18.738;2024-03-06T09:12:33;99729.94;;;12.47;71.18
51245;BME280;37840;47.562;18.738;2024-03-06T09:15:00;99735.38;;;12.34;70.53
51245;BME280;37840;47.562;18.738;2024-03-06T09:17:27;99733.81;;;12.32;70.39
51245;BME280;37840;47.562;18.738;2024-03-06T09:19:53;99729.47;;;12.31;72.31
51245;BME280;37840;47.562;18.738;2024-03-06T09:22:19;99727.13;;;12.26;70.83
51245;BME280;37840;47.562;18.738;2024-03-06T09:24:45;99731.88;;;12.22;70.39
51245;BME280;37840;47.562;18.738;2024-03-06T09:27:12;99734.44;;;12.24;70.91
51245;BME280;37840;47.562;18.738;2024-03-06T09:29:40;99733.19;;;12.17;71.61
51245;BME280;37840;47.562;18.738;2024-03-06T09:32:06;99733.19;;;12.17;71.06
51245;BME280;37840;47.562;18.738;2024-03-06T09:34:32;99731.72;;;12.13;72.90
51245;BME280;37840;47.562;18.738;2024-03-06T09:36:58;99732.47;;;12.15;74.36
51245;BME280;37840;47.562;18.738;2024-03-06T09:39:24;99726.19;;;12.27;70.95
51245;BME280;37840;47.562;18.738;2024-03-06T09:41:51;99725.59;;;12.35;72.75
51245;BME280;37840;47.562;18.738;2024-03-06T09:44:17;99714.41;;;12.41;72.38
51245;BME280;37840;47.562;18.738;2024-03-06T09:46:45;99721.19;;;12.45;70.26
51245;BME280;37840;47.562;18.738;2024-03-06T09:49:14;99717.44;;;12.59;71.82
51245;BME280;37840;47.562;18.738;2024-03-06T09:51:45;99710.41;;;12.69;72.76
51245;BME280;37840;47.562;18.738;2024-03-06T09:54:14;99711.37;;;12.79;70.75
51245;BME280;37840;47.562;18.738;2024-03-06T09:56:44;99702.00;;;12.85;69.53
51245;BME280;37840;47.562;18.738;2024-03-06T09:59:13;99702.50;;;12.90;69.05
51245;BME280;37840;47.562;18.738;2024-03-06T10:01:56;99706.72;;;12.93;69.09
51245;BME280;37840;47.562;18.738;2024-03-06T10:04:24;99702.19;;;13.04;69.59
51245;BME280;37840;47.562;18.738;2024-03-06T10:06:56;99695.22;;;13.13;67.83
51245;BME280;37840;47.562;18.738;2024-03-06T10:09:23;99697.16;;;13.22;67.14
51245;BME280;37840;47.562;18.738;2024-03-06T10:11:50;99696.31;;;13.33;65.97
51245;BME280;37840;47.562;18.738;2024-03-06T10:14:18;99700.09;;;13.31;67.37
51245;BME280;37840;47.562;18.738;2024-03-06T10:16:58;99691.44;;;13.27;66.91
51245;BME280;37840;47.562;18.738;2024-03-06T10:19:26;99695.78;;;13.39;69.10
51245;BME280;37840;47.562;18.738;2024-03-06T10:21:56;99689.44;;;13.52;68.24
51245;BME280;37840;47.562;18.738;2024-03-06T10:24:27;99689.09;;;13.66;68.07
51245;BME280;37840;47.562;18.738;2024-03-06T10:26:57;99692.94;;;13.73;69.02
51245;BME280;37840;47.562;18.738;2024-03-06T10:29:25;99688.53;;;13.83;67.85
51245;BME280;37840;47.562;18.738;2024-03-06T10:31:52;99693.72;;;13.85;68.06
51245;BME280;37840;47.562;18.738;2024-03-06T10:34:21;99690.50;;;13.91;67.11
51245;BME280;37840;47.562;18.738;2024-03-06T10:36:58;99676.94;;;14.04;65.05
51245;BME280;37840;47.562;18.738;2024-03-06T10:39:24;99676.69;;;14.07;65.82
51245;BME280;37840;47.562;18.738;2024-03-06T10:41:55;99680.91;;;14.10;66.71
51245;BME280;37840;47.562;18.738;2024-03-06T10:44:25;99683.25;;;14.24;66.34
51245;BME280;37840;47.562;18.738;2024-03-06T10:47:11;99673.25;;;14.26;63.35
51245;BME280;37840;47.562;18.738;2024-03-06T10:49:39;99672.22;;;14.17;67.10
51245;BME280;37840;47.562;18.738;2024-03-06T10:52:09;99669.81;;;13.83;62.95
51245;BME280;37840;47.562;18.738;2024-03-06T10:54:35;99667.78;;;13.76;64.32
51245;BME280;37840;47.562;18.738;2024-03-06T10:57:05;99671.78;;;13.81;64.94
51245;BME280;37840;47.562;18.738;2024-03-06T10:59:31;99662.75;;;13.82;64.47
51245;BME280;37840;47.562;18.738;2024-03-06T11:01:58;99665.63;;;13.91;65.87
51245;BME280;37840;47.562;18.738;2024-03-06T11:04:31;99656.94;;;13.98;65.58
51245;BME280;37840;47.562;18.738;2024-03-06T11:07:03;99660.06;;;14.03;63.93
51245;BME280;37840;47.562;18.738;2024-03-06T11:09:34;99653.72;;;14.04;62.67
51245;BME280;37840;47.562;18.738;2024-03-06T11:12:04;99649.66;;;14.10;63.24
51245;BME280;37840;47.562;18.738;2024-03-06T11:14:36;99650.25;;;14.14;63.33
51245;BME280;37840;47.562;18.738;2024-03-06T11:17:08;99646.19;;;14.19;64.03
51245;BME280;37840;47.562;18.738;2024-03-06T11:23:01;99641.47;;;14.42;62.87
51245;BME280;37840;47.562;18.738;2024-03-06T11:28:20;99632.75;;;14.40;63.98
51245;BME280;37840;47.562;18.738;2024-03-06T11:33:14;99621.78;;;14.53;65.11
51245;BME280;37840;47.562;18.738;2024-03-06T11:35:42;99614.06;;;14.50;63.65
51245;BME280;37840;47.562;18.738;2024-03-06T11:38:17;99620.22;;;14.41;63.38
51245;BME280;37840;47.562;18.738;2024-03-06T11:40:48;99619.37;;;14.40;63.58
51245;BME280;37840;47.562;18.738;2024-03-06T11:43:26;99620.50;;;14.38;63.21
51245;BME280;37840;47.562;18.738;2024-03-06T11:45:53;99623.72;;;14.32;62.59
51245;BME280;37840;47.562;18.738;2024-03-06T11:48:19;99616.94;;;14.27;64.14
51245;BME280;37840;47.562;18.738;2024-03-06T11:50:47;99611.16;;;14.22;63.80
51245;BME280;37840;47.562;18.738;2024-03-06T11:53:14;99615.97;;;14.28;62.75
51245;BME280;37840;47.562;18.738;2024-03-06T11:55:40;99613.28;;;14.28;62.39
51245;BME280;37840;47.562;18.738;2024-03-06T11:58:06;99610.47;;;14.30;61.84
51245;BME280;37840;47.562;18.738;2024-03-06T12:00:33;99613.84;;;14.32;61.90
51245;BME280;37840;47.562;18.738;2024-03-06T12:02:59;99602.75;;;14.37;61.46
51245;BME280;37840;47.562;18.738;2024-03-06T12:05:25;99610.38;;;14.41;60.76
51245;BME280;37840;47.562;18.738;2024-03-06T12:07:53;99608.25;;;14.45;61.19
51245;BME280;37840;47.562;18.738;2024-03-06T12:10:20;99602.63;;;14.48;60.97
51245;BME280;37840;47.562;18.738;2024-03-06T12:12:46;99604.47;;;14.47;61.14
51245;BME280;37840;47.562;18.738;2024-03-06T12:15:13;99605.91;;;14.52;61.47
51245;BME280;37840;47.562;18.738;2024-03-06T12:17:44;99593.22;;;14.54;64.09
51245;BME280;37840;47.562;18.738;2024-03-06T12:20:12;99598.59;;;14.54;63.67
51245;BME280;37840;47.562;18.738;2024-03-06T12:25:26;99595.81;;;14.65;63.92
51245;BME280;37840;47.562;18.738;2024-03-06T12:27:54;99589.19;;;14.69;64.34
51245;BME280;37840;47.562;18.738;2024-03-06T12:30:21;99596.78;;;14.64;62.28
51245;BME280;37840;47.562;18.738;2024-03-06T12:33:01;99586.50;;;14.59;62.30
51245;BME280;37840;47.562;18.738;2024-03-06T12:35:30;99591.28;;;14.56;62.60
51245;BME280;37840;47.562;18.738;2024-03-06T12:37:57;99587.50;;;14.58;62.88
51245;BME280;37840;47.562;18.738;2024-03-06T12:40:23;99590.41;;;14.55;62.37
51245;BME280;37840;47.562;18.738;2024-03-06T12:42:50;99587.88;;;14.54;62.10
51245;BME280;37840;47.562;18.738;2024-03-06T12:45:18;99579.69;;;14.45;61.50
51245;BME280;37840;47.562;18.738;2024-03-06T12:47:45;99582.19;;;14.47;63.24
51245;BME280;37840;47.562;18.738;2024-03-06T12:50:13;99583.06;;;14.47;62.98
51245;BME280;37840;47.562;18.738;2024-03-06T12:52:40;99581.66;;;14.43;64.10
51245;BME280;37840;47.562;18.738;2024-03-06T12:55:07;99580.38;;;14.38;64.05
51245;BME280;37840;47.562;18.738;2024-03-06T12:57:33;99583.16;;;14.36;64.36
51245;BME280;37840;47.562;18.738;2024-03-06T13:00:00;99582.31;;;14.36;64.25
51245;BME280;37840;47.562;18.738;2024-03-06T13:02:26;99576.56;;;14.40;64.91
51245;BME280;37840;47.562;18.738;2024-03-06T13:04:52;99578.81;;;14.35;63.99